Time;durP1;ratioP1;P1;durP2;ratioP2;P2;SDS_P1;SDS_P2;PMS_P1;PMS_P2;Temp;Humidity;BMP_temperature;BMP_pressure;BME280_temperature;BME280_humidity;BME280_pressure;Samples;Min_cycle;Max_cycle;Signal;HPM_P1;HPM_P2
2022/07/17 00:01:20;;;;;;;;;;;;;;;-142.75;100.00;77928.78;4971856;28;19918;-69
2022/07/17 00:03:45;;;;;;;;;;;;;;;-142.75;100.00;77938.63;4971790;28;19925;-69
2022/07/17 00:06:11;;;;;;;;;;;;;;;-142.75;100.00;77944.53;4971755;28;19957;-70
2022/07/17 00:08:36;;;;;;;;;;;;;;;-142.75;100.00;77944.53;4971248;28;19939;-69
2022/07/17 00:11:01;;;;;;;;;;;;;;;-142.75;100.00;77948.47;4971507;28;20415;-69
2022/07/17 00:13:27;;;;;;;;;;;;;;;-142.75;100.00;77948.47;4970089;28;19914;-68
2022/07/17 00:15:52;;;;;;;;;;;;;;;-142.75;100.00;77950.44;4971440;28;20292;-70
2022/07/17 00:18:17;;;;;;;;;;;;;;;-142.75;100.00;77952.41;4969754;28;19915;-69
2022/07/17 00:20:43;;;;;;;;;;;;;;;-142.75;100.00;77958.31;4970891;28;19914;-70
2022/07/17 00:23:09;;;;;;;;;;;;;;;-142.75;100.00;77962.25;4971404;28;19974;-69
2022/07/17 00:25:34;;;;;;;;;;;;;;;-142.75;100.00;77960.28;4971386;28;19915;-70
2022/07/17 00:27:59;;;;;;;;;;;;;;;-142.75;100.00;77958.31;4970678;28;19922;-69
2022/07/17 00:30:24;;;;;;;;;;;;;;;-142.75;100.00;77956.34;4970125;28;19976;-67
2022/07/17 00:32:50;;;;;;;;;;;;;;;-142.75;100.00;77952.41;4971104;28;19919;-70
2022/07/17 00:35:15;;;;;;;;;;;;;;;-142.75;100.00;77956.34;4969911;28;19914;-70
2022/07/17 00:37:42;;;;;;;;;;;;;;;-142.75;100.00;77956.34;4971062;28;19918;-69
2022/07/17 00:40:08;;;;;;;;;;;;;;;-142.75;100.00;77952.41;4971022;28;19984;-69
2022/07/17 00:42:33;;;;;;;;;;;;;;;-142.75;100.00;77948.47;4971300;28;20005;-70
2022/07/17 00:45:00;;;;;;;;;;;;;;;-142.75;100.00;77952.41;4970532;28;20179;-69
2022/07/17 00:47:25;;;;;;;;;;;;;;;-142.75;100.00;77952.41;4970998;28;19997;-69
2022/07/17 00:49:50;;;;;;;;;;;;;;;-142.75;100.00;77954.38;4970707;28;19975;-70
2022/07/17 00:52:16;;;;;;;;;;;;;;;-142.75;100.00;77960.28;4970911;28;19960;-70
2022/07/17 00:54:43;;;;;;;;;;;;;;;-142.75;100.00;77960.28;4970996;28;20286;-70
2022/07/17 00:57:13;;;;;;;;;;;;;;;-142.75;100.00;77962.25;4970870;28;19918;-70
2022/07/17 00:59:42;;;;;;;;;;;;;;;-142.75;100.00;77960.28;4970568;28;20008;-69
2022/07/17 01:02:08;;;;;;;;;;;;;;;-142.75;100.00;77952.41;4970783;28;19914;-70
2022/07/17 01:04:34;;;;;;;;;;;;;;;-142.75;100.00;77956.34;4970861;28;19921;-70
2022/07/17 01:07:00;;;;;;;;;;;;;;;-142.75;100.00;77950.44;4969598;28;19915;-70
2022/07/17 01:09:26;;;;;;;;;;;;;;;-142.75;100.00;77936.66;4970486;28;19925;-69
2022/07/17 01:11:51;;;;;;;;;;;;;;;-142.75;100.00;77928.78;4971014;28;19914;-70
2022/07/17 01:14:16;;;;;;;;;;;;;;;-142.75;100.00;77911.06;4970790;28;19922;-70
2022/07/17 01:16:42;;;;;;;;;;;;;;;-142.75;100.00;77909.06;4970501;28;19918;-70
2022/07/17 01:19:09;;;;;;;;;;;;;;;-142.75;100.00;77897.25;4969153;28;19967;-70
2022/07/17 01:21:38;;;;;;;;;;;;;;;-142.75;100.00;77893.31;4970674;28;19956;-70
2022/07/17 01:24:03;;;;;;;;;;;;;;;-142.75;100.00;77895.28;4970611;28;19914;-70
2022/07/17 01:26:28;;;;;;;;;;;;;;;-142.75;100.00;77905.13;4970551;28;19921;-69
2022/07/17 01:28:54;;;;;;;;;;;;;;;-142.75;100.00;77920.91;4970060;28;19932;-70
2022/07/17 01:31:19;;;;;;;;;;;;;;;-142.75;100.00;77922.88;4970433;28;19921;-70
2022/07/17 01:33:44;;;;;;;;;;;;;;;-142.75;100.00;77934.69;4972781;28;19983;-69
2022/07/17 01:36:09;;;;;;;;;;;;;;;-142.75;100.00;77940.59;4973899;28;19922;-69
2022/07/17 01:38:34;;;;;;;;;;;;;;;-142.75;100.00;77940.59;4973450;28;19915;-69
2022/07/17 01:41:00;;;;;;;;;;;;;;;-142.75;100.00;77942.56;4973688;28;20013;-69
2022/07/17 01:43:25;;;;;;;;;;;;;;;-142.75;100.00;77938.63;4973737;28;20375;-69
2022/07/17 01:45:50;;;;;;;;;;;;;;;-142.75;100.00;77928.78;4973683;28;19914;-69
2022/07/17 01:48:23;;;;;;;;;;;;;;;-142.75;100.00;77920.91;4973662;28;19914;-70
2022/07/17 01:50:48;;;;;;;;;;;;;;;-142.75;100.00;77920.91;4973668;28;19921;-69
2022/07/17 01:53:13;;;;;;;;;;;;;;;-142.75;100.00;77909.06;4973665;28;19915;-70
2022/07/17 01:55:38;;;;;;;;;;;;;;;-142.75;100.00;77905.13;4972262;28;19950;-70
2022/07/17 01:58:05;;;;;;;;;;;;;;;-142.75;100.00;77911.06;4973185;28;19918;-70
2022/07/17 02:00:30;;;;;;;;;;;;;;;-142.75;100.00;77913.03;4973476;28;20392;-69
2022/07/17 02:02:55;;;;;;;;;;;;;;;-142.75;100.00;77922.88;4973430;28;19914;-70
2022/07/17 02:05:20;;;;;;;;;;;;;;;-142.75;100.00;77938.63;4972302;28;20000;-68
2022/07/17 02:07:46;;;;;;;;;;;;;;;-142.75;100.00;77964.22;4971955;28;20060;-69
2022/07/17 02:10:13;;;;;;;;;;;;;;;-142.75;100.00;77968.16;4972014;28;19923;-69
2022/07/17 02:12:38;;;;;;;;;;;;;;;-142.75;100.00;77979.97;4973535;28;19914;-70
2022/07/17 02:15:04;;;;;;;;;;;;;;;-142.75;100.00;77987.84;4973419;28;20387;-70
2022/07/17 02:17:29;;;;;;;;;;;;;;;-142.75;100.00;77993.75;4973108;28;19972;-69
2022/07/17 02:19:55;;;;;;;;;;;;;;;-142.75;100.00;77991.78;4973052;28;20435;-69
2022/07/17 02:22:20;;;;;;;;;;;;;;;-142.75;100.00;77997.69;4973191;28;20008;-68
2022/07/17 02:24:45;;;;;;;;;;;;;;;-142.75;100.00;77991.78;4973149;28;19914;-69
2022/07/17 02:27:10;;;;;;;;;;;;;;;-142.75;100.00;77985.88;4973179;28;19918;-69
2022/07/17 02:29:35;;;;;;;;;;;;;;;-142.75;100.00;77974.06;4972761;28;20335;-70
2022/07/17 02:32:01;;;;;;;;;;;;;;;-142.75;100.00;77968.16;4973152;28;19914;-69
2022/07/17 02:34:26;;;;;;;;;;;;;;;-142.75;100.00;77974.06;4973115;28;19956;-70
2022/07/17 02:36:51;;;;;;;;;;;;;;;-142.75;100.00;77972.09;4972873;28;20345;-69
2022/07/17 02:39:16;;;;;;;;;;;;;;;-142.75;100.00;77978.00;4971670;28;20324;-70
2022/07/17 02:41:41;;;;;;;;;;;;;;;-142.75;100.00;77979.97;4971998;28;19918;-70
2022/07/17 02:44:06;;;;;;;;;;;;;;;-142.75;100.00;77985.88;4971302;28;20051;-70
2022/07/17 02:46:32;;;;;;;;;;;;;;;-142.75;100.00;78001.63;4971717;28;19959;-70
2022/07/17 02:48:57;;;;;;;;;;;;;;;-142.75;100.00;78005.56;4972636;28;19921;-70
2022/07/17 02:51:22;;;;;;;;;;;;;;;-142.75;100.00;78005.56;4973047;28;20531;-69
2022/07/17 02:53:47;;;;;;;;;;;;;;;-142.75;100.00;78013.44;4972732;28;19915;-69
2022/07/17 02:56:12;;;;;;;;;;;;;;;-142.75;100.00;78015.41;4972889;28;20001;-69
2022/07/17 02:58:38;;;;;;;;;;;;;;;-142.75;100.00;78031.16;4972303;28;20367;-70
2022/07/17 03:01:03;;;;;;;;;;;;;;;-142.75;100.00;78041.00;4972627;28;19914;-70
2022/07/17 03:03:28;;;;;;;;;;;;;;;-142.75;100.00;78042.97;4972709;28;20418;-70
2022/07/17 03:05:54;;;;;;;;;;;;;;;-142.75;100.00;78042.97;4972605;28;19922;-70
2022/07/17 03:08:19;;;;;;;;;;;;;;;-142.75;100.00;78052.81;4972425;28;19914;-69
2022/07/17 03:10:44;;;;;;;;;;;;;;;-142.75;100.00;78054.81;4972442;28;20000;-69
2022/07/17 03:13:09;;;;;;;;;;;;;;;-142.75;100.00;78066.63;4971038;28;19950;-69
2022/07/17 03:15:34;;;;;;;;;;;;;;;-142.75;100.00;78058.72;4972302;28;20285;-69
2022/07/17 03:17:59;;;;;;;;;;;;;;;-142.75;100.00;78054.81;4970658;28;19918;-70
2022/07/17 03:20:25;;;;;;;;;;;;;;;-142.75;100.00;78062.69;4972277;28;19914;-69
2022/07/17 03:22:50;;;;;;;;;;;;;;;-142.75;100.00;78062.69;4972197;28;19918;-69
2022/07/17 03:25:15;;;;;;;;;;;;;;;-142.75;100.00;78062.69;4972309;28;19914;-68
2022/07/17 03:27:40;;;;;;;;;;;;;;;-142.75;100.00;78064.66;4971966;28;19914;-69
2022/07/17 03:30:06;;;;;;;;;;;;;;;-142.75;100.00;78072.53;4971849;28;20003;-70
2022/07/17 03:32:31;;;;;;;;;;;;;;;-142.75;100.00;78072.53;4972024;28;19915;-69
2022/07/17 03:34:57;;;;;;;;;;;;;;;-142.75;100.00;78072.53;4972066;28;20380;-70
2022/07/17 03:37:22;;;;;;;;;;;;;;;-142.75;100.00;78080.41;4970773;28;19967;-68
2022/07/17 03:39:47;;;;;;;;;;;;;;;-142.75;100.00;78086.31;4970533;28;19921;-69
2022/07/17 03:42:12;;;;;;;;;;;;;;;-142.75;100.00;78092.22;4972059;28;19914;-70
2022/07/17 03:44:37;;;;;;;;;;;;;;;-142.75;100.00;78094.19;4971995;28;19914;-70
2022/07/17 03:47:03;;;;;;;;;;;;;;;-142.75;100.00;78090.25;4971953;28;19948;-69
2022/07/17 03:49:28;;;;;;;;;;;;;;;-142.75;100.00;78094.19;4971539;28;19914;-69
2022/07/17 03:51:53;;;;;;;;;;;;;;;-142.75;100.00;78094.19;4972052;28;19957;-69
2022/07/17 03:54:18;;;;;;;;;;;;;;;-142.75;100.00;78098.13;4971744;28;20005;-69
2022/07/17 03:56:43;;;;;;;;;;;;;;;-142.75;100.00;78094.19;4970881;28;20375;-68
2022/07/17 03:59:08;;;;;;;;;;;;;;;-142.75;100.00;78078.44;4971368;28;20265;-69
2022/07/17 04:01:34;;;;;;;;;;;;;;;-142.75;100.00;78072.53;4970515;28;19937;-70
2022/07/17 04:03:59;;;;;;;;;;;;;;;-142.75;100.00;78066.63;4971594;28;19914;-70
2022/07/17 04:06:24;;;;;;;;;;;;;;;-142.75;100.00;78058.72;4971654;28;19918;-69
2022/07/17 04:08:49;;;;;;;;;;;;;;;-142.75;100.00;78058.72;4971335;28;19918;-70
2022/07/17 04:11:14;;;;;;;;;;;;;;;-142.75;100.00;78058.72;4971645;28;19948;-69
2022/07/17 04:13:40;;;;;;;;;;;;;;;-142.75;100.00;78056.78;4970402;28;20395;-70
2022/07/17 04:16:05;;;;;;;;;;;;;;;-142.75;100.00;78062.69;4971425;28;19971;-70
2022/07/17 04:18:32;;;;;;;;;;;;;;;-142.75;100.00;78066.63;4971057;28;19914;-70
2022/07/17 04:21:01;;;;;;;;;;;;;;;-142.75;100.00;78068.59;4971512;28;20265;-70
2022/07/17 04:23:27;;;;;;;;;;;;;;;-142.75;100.00;78066.63;4971357;28;19921;-69
2022/07/17 04:25:52;;;;;;;;;;;;;;;-142.75;100.00;78068.59;4971257;28;19914;-70
2022/07/17 04:28:17;;;;;;;;;;;;;;;-142.75;100.00;78070.56;4970785;28;20025;-69
2022/07/17 04:30:43;;;;;;;;;;;;;;;-142.75;100.00;78068.59;4971270;28;20340;-69
2022/07/17 04:33:08;;;;;;;;;;;;;;;-142.75;100.00;78066.63;4971135;28;19921;-69
2022/07/17 04:35:33;;;;;;;;;;;;;;;-142.75;100.00;78064.66;4971298;28;19969;-69
2022/07/17 04:37:59;;;;;;;;;;;;;;;-142.75;100.00;78066.63;4970744;28;20268;-69
2022/07/17 04:40:24;;;;;;;;;;;;;;;-142.75;100.00;78062.69;4971083;28;20434;-69
2022/07/17 04:42:50;;;;;;;;;;;;;;;-142.75;100.00;78054.81;4971079;28;19925;-70
2022/07/17 04:45:15;;;;;;;;;;;;;;;-142.75;100.00;78054.81;4971026;28;20375;-68
2022/07/17 04:47:40;;;;;;;;;;;;;;;-142.75;100.00;78042.97;4970895;28;19914;-68
2022/07/17 04:50:06;;;;;;;;;;;;;;;-142.75;100.00;78019.34;4970727;28;19920;-70
2022/07/17 04:52:31;;;;;;;;;;;;;;;-142.75;100.00;77999.66;4971058;28;20005;-69
2022/07/17 04:54:56;;;;;;;;;;;;;;;-142.75;100.00;77989.81;4971009;28;19914;-70
2022/07/17 04:57:21;;;;;;;;;;;;;;;-142.75;100.00;77985.88;4970947;28;19941;-68
2022/07/17 04:59:47;;;;;;;;;;;;;;;-142.75;100.00;77972.09;4970535;28;20376;-70
2022/07/17 05:02:12;;;;;;;;;;;;;;;-142.75;100.00;77964.22;4970748;28;20294;-68
2022/07/17 05:04:37;;;;;;;;;;;;;;;-142.75;100.00;77944.53;4971049;28;20406;-69
2022/07/17 05:07:02;;;;;;;;;;;;;;;-142.75;100.00;77936.66;4970595;28;19920;-70
2022/07/17 05:09:28;;;;;;;;;;;;;;;-142.75;100.00;77936.66;4970250;28;19924;-69
2022/07/17 05:11:53;;;;;;;;;;;;;;;-142.75;100.00;77924.84;4970718;28;19966;-69
2022/07/17 05:14:18;;;;;;;;;;;;;;;-142.75;100.00;77924.84;4970542;28;19975;-69
2022/07/17 05:16:43;;;;;;;;;;;;;;;-142.75;100.00;77928.78;4970531;28;19922;-69
2022/07/17 05:19:08;;;;;;;;;;;;;;;-142.75;100.00;77918.94;4970363;28;19985;-68
2022/07/17 05:21:34;;;;;;;;;;;;;;;-142.75;100.00;77901.19;4969408;28;19918;-69
2022/07/17 05:23:59;;;;;;;;;;;;;;;-142.75;100.00;77887.41;4970489;28;20443;-70
2022/07/17 05:26:24;;;;;;;;;;;;;;;-142.75;100.00;77889.38;4969215;28;19952;-69
2022/07/17 05:28:49;;;;;;;;;;;;;;;-142.75;100.00;77881.50;4979925;22;19927;-71
2022/07/17 05:31:15;;;;;;;;;;;;;;;-142.75;100.00;77881.50;4930677;29;19923;-71
2022/07/17 05:33:40;;;;;;;;;;;;;;;-142.75;100.00;77879.53;4930047;28;19973;-71
2022/07/17 05:36:05;;;;;;;;;;;;;;;-142.75;100.00;77881.50;4931936;29;20392;-71
2022/07/17 05:38:31;;;;;;;;;;;;;;;-142.75;100.00;77877.56;4931797;29;19938;-71
2022/07/17 05:40:56;;;;;;;;;;;;;;;-142.75;100.00;77869.69;4930591;29;20377;-71
2022/07/17 05:43:21;;;;;;;;;;;;;;;-142.75;100.00;77857.88;4930660;29;19922;-71
2022/07/17 05:45:46;;;;;;;;;;;;;;;-142.75;100.00;77838.19;4931848;29;19915;-71
2022/07/17 05:48:11;;;;;;;;;;;;;;;-142.75;100.00;77826.38;4931678;29;19915;-71
2022/07/17 05:50:37;;;;;;;;;;;;;;;-142.75;100.00;77822.44;4931778;28;20284;-71
2022/07/17 05:53:02;;;;;;;;;;;;;;;-142.75;100.00;77800.78;4931898;29;19985;-72
2022/07/17 05:55:27;;;;;;;;;;;;;;;-142.75;100.00;77798.81;4931580;29;19915;-71
2022/07/17 05:57:52;;;;;;;;;;;;;;;-142.75;100.00;77798.81;4931439;29;19981;-69
2022/07/17 06:00:18;;;;;;;;;;;;;;;-142.75;100.00;77785.03;4931451;29;19921;-71
2022/07/17 06:02:43;;;;;;;;;;;;;;;-142.75;100.00;77761.41;4931701;28;19919;-71
2022/07/17 06:05:09;;;;;;;;;;;;;;;-142.75;100.00;77741.72;4931581;29;19938;-71
2022/07/17 06:07:35;;;;;;;;;;;;;;;-142.75;100.00;77729.88;4931680;29;19921;-70
2022/07/17 06:10:00;;;;;;;;;;;;;;;-142.75;100.00;77720.03;4929868;29;19921;-71
2022/07/17 06:12:25;;;;;;;;;;;;;;;-142.75;100.00;77704.28;4931496;29;19915;-71
2022/07/17 06:14:50;;;;;;;;;;;;;;;-142.75;100.00;77700.34;4931502;29;20074;-71
2022/07/17 06:17:15;;;;;;;;;;;;;;;-142.75;100.00;77692.47;4931400;29;19918;-71
2022/07/17 06:19:41;;;;;;;;;;;;;;;-142.75;100.00;77686.56;4932052;29;19965;-72
2022/07/17 06:22:06;;;;;;;;;;;;;;;-142.75;100.00;77678.69;4933393;28;19915;-71
2022/07/17 06:24:31;;;;;;;;;;;;;;;-142.75;100.00;77655.06;4933601;28;19921;-72
2022/07/17 06:26:56;;;;;;;;;;;;;;;-142.75;100.00;77659.00;4934613;29;20420;-72
2022/07/17 06:29:21;;;;;;;;;;;;;;;-142.75;100.00;77637.34;4934127;29;19926;-71
2022/07/17 06:31:47;;;;;;;;;;;;;;;-142.75;100.00;77615.69;4934537;29;19915;-71
2022/07/17 06:34:12;;;;;;;;;;;;;;;-142.75;100.00;77605.84;4934489;29;19915;-71
2022/07/17 06:36:37;;;;;;;;;;;;;;;-142.75;100.00;77580.25;4934363;29;19919;-71
2022/07/17 06:39:02;;;;;;;;;;;;;;;-142.75;100.00;77558.59;4934118;29;20053;-69
2022/07/17 06:41:27;;;;;;;;;;;;;;;-142.75;100.00;77538.91;4933218;29;20006;-71
2022/07/17 06:43:53;;;;;;;;;;;;;;;-142.75;100.00;77523.16;4934705;29;19919;-71
2022/07/17 06:46:18;;;;;;;;;;;;;;;-142.75;100.00;77509.38;4934301;29;19915;-71
2022/07/17 06:48:43;;;;;;;;;;;;;;;-142.75;100.00;77479.84;4933973;29;19918;-71
2022/07/17 06:51:09;;;;;;;;;;;;;;;-142.75;100.00;77462.13;4934245;29;20012;-72
2022/07/17 06:53:34;;;;;;;;;;;;;;;-142.75;100.00;77450.28;4932914;29;19915;-71
2022/07/17 06:55:59;;;;;;;;;;;;;;;-142.75;100.00;77432.56;4934092;29;20361;-72
2022/07/17 06:58:24;;;;;;;;;;;;;;;-142.75;100.00;77418.78;4933839;29;19926;-72
2022/07/17 07:00:49;;;;;;;;;;;;;;;-142.75;100.00;77397.13;4932837;29;19915;-72
2022/07/17 07:03:15;;;;;;;;;;;;;;;-142.75;100.00;77391.22;4934117;29;19992;-72
2022/07/17 07:05:40;;;;;;;;;;;;;;;-142.75;100.00;77373.50;4934049;29;19919;-71
2022/07/17 07:08:05;;;;;;;;;;;;;;;-142.75;100.00;77371.53;4932462;29;19921;-71
2022/07/17 07:10:30;;;;;;;;;;;;;;;-142.75;100.00;77351.84;4932634;28;19927;-71
2022/07/17 07:12:56;;;;;;;;;;;;;;;-142.75;100.00;77326.25;4932700;28;19915;-72
2022/07/17 07:15:21;;;;;;;;;;;;;;;-142.75;100.00;77347.91;4933771;29;19915;-71
2022/07/17 07:17:47;;;;;;;;;;;;;;;-142.75;100.00;77322.31;4932727;29;19914;-71
2022/07/17 07:20:13;;;;;;;;;;;;;;;-142.75;100.00;77342.00;4933110;28;19919;-71
2022/07/17 07:22:38;;;;;;;;;;;;;;;-142.75;100.00;77314.44;4933439;28;19922;-72
2022/07/17 07:25:04;;;;;;;;;;;;;;;-142.75;100.00;77277.03;4932521;28;19927;-72
2022/07/17 07:27:29;;;;;;;;;;;;;;;-142.75;100.00;77247.50;4934027;29;19914;-70
2022/07/17 07:29:54;;;;;;;;;;;;;;;-142.75;100.00;77223.88;4932235;29;19925;-71
2022/07/17 07:32:19;;;;;;;;;;;;;;;-142.75;100.00;77196.31;4933375;29;19921;-71
2022/07/17 07:34:44;;;;;;;;;;;;;;;-142.75;100.00;77196.31;4933585;29;19921;-71
2022/07/17 07:37:10;;;;;;;;;;;;;;;-142.75;100.00;77180.56;4933456;29;19926;-71
2022/07/17 07:39:35;;;;;;;;;;;;;;;-142.75;100.00;77204.19;4933114;29;19915;-70
2022/07/17 07:42:00;;;;;;;;;;;;;;;-142.75;100.00;77200.25;4933440;29;19915;-71
2022/07/17 07:44:26;;;;;;;;;;;;;;;-142.75;100.00;77212.06;4934079;29;19961;-72
2022/07/17 07:46:51;;;;;;;;;;;;;;;-142.75;100.00;77168.75;4932482;28;20296;-72
2022/07/17 07:49:17;;;;;;;;;;;;;;;-142.75;100.00;77153.00;4933154;29;20017;-72
2022/07/17 07:51:42;;;;;;;;;;;;;;;-142.75;100.00;77145.13;4932163;28;19990;-72
2022/07/17 07:54:07;;;;;;;;;;;;;;;-142.75;100.00;77137.25;4932106;28;19914;-72
2022/07/17 07:56:33;;;;;;;;;;;;;;;-142.75;100.00;77127.41;4933284;29;20005;-71
2022/07/17 07:58:58;;;;;;;;;;;;;;;-142.75;100.00;77125.44;4933195;29;20407;-72
2022/07/17 08:01:23;;;;;;;;;;;;;;;-142.75;100.00;77137.25;4933137;29;20332;-71
2022/07/17 08:03:49;;;;;;;;;;;;;;;-142.75;100.00;77123.47;4932165;29;19922;-72
2022/07/17 08:06:14;;;;;;;;;;;;;;;-142.75;100.00;77101.81;4931838;28;20361;-72
2022/07/17 08:08:39;;;;;;;;;;;;;;;-142.75;100.00;77090.00;4932721;29;19937;-72
2022/07/17 08:11:05;;;;;;;;;;;;;;;-142.75;99.03;77117.56;4933154;29;19915;-72
2022/07/17 08:13:31;;;;;;;;;;;;;;;-142.75;100.00;77109.69;4931851;28;19915;-72
2022/07/17 08:15:56;;;;;;;;;;;;;;;-142.75;100.00;77074.25;4933082;29;19919;-72
2022/07/17 08:18:22;;;;;;;;;;;;;;;-142.75;100.00;77064.41;4941560;28;20293;-72
2022/07/17 08:20:47;;;;;;;;;;;;;;;-142.75;100.00;77054.56;4985951;28;19995;-70
2022/07/17 08:23:12;;;;;;;;;;;;;;;-142.75;100.00;77052.59;4951807;28;19914;-72
2022/07/17 08:25:37;;;;;;;;;;;;;;;-142.75;100.00;77038.81;4951992;29;19919;-72
2022/07/17 08:28:03;;;;;;;;;;;;;;;-142.75;100.00;77027.00;4951506;28;19960;-71
2022/07/17 08:30:31;;;;;;;;;;;;;;;-142.75;100.00;77015.19;4951779;29;20364;-72
2022/07/17 08:32:56;;;;;;;;;;;;;;;-142.75;96.15;76995.50;4950646;28;19914;-68
2022/07/17 08:35:21;;;;;;;;;;;;;;;-142.75;95.17;76964.00;4951994;28;20380;-72
2022/07/17 08:37:48;;;;;;;;;;;;;;;-142.75;91.24;76960.06;4952031;28;20407;-72
2022/07/17 08:40:20;;;;;;;;;;;;;;;-142.75;86.13;76932.50;4951758;28;20013;-72
2022/07/17 08:42:45;;;;;;;;;;;;;;;-142.75;83.11;76912.81;4951505;28;19915;-72
2022/07/17 08:45:11;;;;;;;;;;;;;;;-142.75;83.54;76924.63;4952026;29;19937;-72
2022/07/17 08:47:37;;;;;;;;;;;;;;;-142.75;84.75;76922.66;4951916;29;19914;-73
2022/07/17 08:50:03;;;;;;;;;;;;;;;-142.75;85.95;76887.22;4951552;28;19915;-73
2022/07/17 08:52:28;;;;;;;;;;;;;;;-142.75;85.59;76889.19;4951601;28;19914;-72
2022/07/17 08:54:53;;;;;;;;;;;;;;;-142.75;82.90;76865.56;4951755;29;19921;-73
2022/07/17 08:57:20;;;;;;;;;;;;;;;-142.75;86.70;76814.38;4951693;29;19918;-73
2022/07/17 08:59:47;;;;;;;;;;;;;;;-142.75;83.76;76814.38;4951708;28;19989;-73
2022/07/17 09:02:12;;;;;;;;;;;;;;;-142.75;79.83;76818.31;4951820;29;19938;-72
2022/07/17 09:04:38;;;;;;;;;;;;;;;-142.75;79.84;76810.44;4951629;29;20376;-71
2022/07/17 09:07:04;;;;;;;;;;;;;;;-142.75;81.01;76792.75;4951613;28;20370;-71
2022/07/17 09:09:30;;;;;;;;;;;;;;;-142.75;80.39;76808.50;4951246;28;19914;-70
2022/07/17 09:11:58;;;;;;;;;;;;;;;-142.75;80.93;76810.44;4951626;29;19915;-72
2022/07/17 09:14:23;;;;;;;;;;;;;;;-142.75;82.01;76806.50;4951844;28;19921;-72
2022/07/17 09:16:49;;;;;;;;;;;;;;;-142.75;81.39;76792.75;4951297;29;19918;-72
2022/07/17 09:19:25;;;;;;;;;;;;;;;-142.75;82.45;76830.13;4949930;28;19938;-72
2022/07/17 09:21:50;;;;;;;;;;;;;;;-142.75;79.15;76790.78;4950392;28;20391;-72
2022/07/17 09:24:15;;;;;;;;;;;;;;;-142.75;76.27;76778.97;4951466;28;20021;-72
2022/07/17 09:26:44;;;;;;;;;;;;;;;-142.75;81.92;76796.69;4951273;29;19976;-72
2022/07/17 09:29:11;;;;;;;;;;;;;;;-142.75;80.21;76741.56;4949625;28;19919;-72
2022/07/17 09:31:37;;;;;;;;;;;;;;;-142.75;74.23;76717.94;4951333;28;20269;-72
2022/07/17 09:34:02;;;;;;;;;;;;;;;-142.75;73.00;76723.84;4951244;28;19921;-73
2022/07/17 09:36:28;;;;;;;;;;;;;;;-142.75;75.07;76715.97;4951580;28;20025;-72
2022/07/17 09:38:54;;;;;;;;;;;;;;;-142.75;72.67;76708.09;4951304;28;19921;-71
2022/07/17 09:41:20;;;;;;;;;;;;;;;-142.75;73.26;76662.81;4951214;28;20292;-72
2022/07/17 09:43:52;;;;;;;;;;;;;;;-142.75;70.01;76670.69;4951152;28;19921;-72
2022/07/17 09:46:19;;;;;;;;;;;;;;;-142.75;69.87;76645.09;4951066;29;20339;-72
2022/07/17 09:48:49;;;;;;;;;;;;;;;-142.75;69.17;76656.91;4950769;28;19937;-72
2022/07/17 09:51:18;;;;;;;;;;;;;;;-142.75;74.43;76637.22;4951007;28;19918;-71
2022/07/17 09:53:47;;;;;;;;;;;;;;;-142.75;71.66;76621.47;4951873;28;20273;-72
2022/07/17 09:56:15;;;;;;;;;;;;;;;-142.75;69.38;76621.47;4954363;28;19926;-72
2022/07/17 09:58:43;;;;;;;;;;;;;;;-142.75;67.56;76645.09;4953888;29;19915;-71
2022/07/17 10:01:08;;;;;;;;;;;;;;;-142.75;67.81;76615.56;4954365;28;19921;-72
2022/07/17 10:03:34;;;;;;;;;;;;;;;-142.75;68.29;76605.72;4954326;29;19915;-72
2022/07/17 10:06:01;;;;;;;;;;;;;;;-142.75;68.88;76615.56;4954453;28;19921;-72
2022/07/17 10:08:26;;;;;;;;;;;;;;;-142.75;69.48;76603.75;4954032;28;19922;-72
2022/07/17 10:10:52;;;;;;;;;;;;;;;-142.75;68.22;76591.94;4954359;29;19915;-72
2022/07/17 10:13:17;;;;;;;;;;;;;;;-142.75;69.01;76629.34;4954220;28;19918;-72
2022/07/17 10:15:42;;;;;;;;;;;;;;;-142.75;68.82;76633.28;4954079;29;19927;-72
2022/07/17 10:18:07;;;;;;;;;;;;;;;-142.75;70.09;76605.72;4953975;29;19914;-72
2022/07/17 10:20:33;;;;;;;;;;;;;;;-142.75;67.36;76595.88;4953029;28;19919;-72
2022/07/17 10:22:58;;;;;;;;;;;;;;;-142.75;66.14;76605.72;4971942;28;19913;-72
2022/07/17 10:25:23;;;;;;;;;;;;;;;-142.75;66.71;76605.72;5008959;28;20054;-72
2022/07/17 10:27:53;;;;;;;;;;;;;;;-142.75;67.59;76554.53;5035166;28;20363;-73
2022/07/17 10:30:26;;;;;;;;;;;;;;;-142.75;66.28;76534.84;5034970;28;19924;-72
2022/07/17 10:32:52;;;;;;;;;;;;;;;-142.75;67.78;76499.44;5035110;28;19917;-73
2022/07/17 10:35:18;;;;;;;;;;;;;;;-142.75;66.57;76507.31;5035089;28;19914;-73
2022/07/17 10:37:43;;;;;;;;;;;;;;;-142.75;63.88;76530.91;5034784;28;20386;-72
2022/07/17 10:40:14;;;;;;;;;;;;;;;-142.75;62.49;76534.84;5034980;28;19964;-72
2022/07/17 10:42:40;;;;;;;;;;;;;;;-142.75;63.96;76530.91;5034996;28;19913;-72
2022/07/17 10:45:11;;;;;;;;;;;;;;;-142.75;65.18;76544.69;5035113;28;20371;-71
2022/07/17 10:47:46;;;;;;;;;;;;;;;-142.75;64.76;76517.16;5034834;28;19913;-71
2022/07/17 10:50:12;;;;;;;;;;;;;;;-142.75;65.52;76542.72;5034841;28;19920;-71
2022/07/17 10:52:37;;;;;;;;;;;;;;;-142.75;64.67;76517.16;5033548;28;20334;-71
2022/07/17 10:55:04;;;;;;;;;;;;;;;-142.75;63.00;76578.16;5034804;28;20004;-71
2022/07/17 10:57:30;;;;;;;;;;;;;;;-142.75;65.03;76584.06;5034446;28;20008;-71
2022/07/17 10:59:56;;;;;;;;;;;;;;;-142.75;63.98;76568.31;5033394;28;19919;-71
2022/07/17 11:02:28;;;;;;;;;;;;;;;-142.75;64.22;76538.78;4968863;28;19915;-71
2022/07/17 11:04:54;;;;;;;;;;;;;;;-142.75;63.75;76538.78;4951881;28;20645;-71
2022/07/17 11:07:19;;;;;;;;;;;;;;;-142.75;63.90;76515.19;4953490;28;19918;-71
2022/07/17 11:09:47;;;;;;;;;;;;;;;-142.75;64.07;76475.81;4952809;29;19914;-71
2022/07/17 11:12:12;;;;;;;;;;;;;;;-142.75;60.43;76442.34;4953231;28;19919;-71
2022/07/17 11:14:38;;;;;;;;;;;;;;;-142.75;63.95;76440.38;4953483;28;20380;-71
2022/07/17 11:17:04;;;;;;;;;;;;;;;-142.75;62.56;76426.59;4953236;28;19976;-72
2022/07/17 11:19:32;;;;;;;;;;;;;;;-142.75;62.95;76401.00;4952850;28;19922;-71
2022/07/17 11:21:58;;;;;;;;;;;;;;;-142.75;60.96;76361.63;4952976;28;19922;-72
2022/07/17 11:24:25;;;;;;;;;;;;;;;-142.75;60.63;76338.03;4952971;28;20442;-73
2022/07/17 11:26:51;;;;;;;;;;;;;;;-142.75;61.80;76343.94;4953478;28;20442;-72
2022/07/17 11:29:16;;;;;;;;;;;;;;;-142.75;61.48;76341.97;4966373;22;19927;-69
2022/07/17 11:31:42;;;;;;;;;;;;;;;-142.75;60.82;76395.09;4931442;28;19976;-70
2022/07/17 11:34:11;;;;;;;;;;;;;;;-142.75;60.94;76369.50;4933395;29;19915;-67
2022/07/17 11:36:37;;;;;;;;;;;;;;;-142.75;61.25;76349.81;4933569;29;19919;-70
2022/07/17 11:39:04;;;;;;;;;;;;;;;-142.75;60.10;76391.16;4933059;29;20013;-69
2022/07/17 11:41:37;;;;;;;;;;;;;;;-142.75;60.63;76418.72;4932254;28;19925;-69
2022/07/17 11:44:03;;;;;;;;;;;;;;;-142.75;61.90;76373.44;4933421;29;19918;-69
2022/07/17 11:46:30;;;;;;;;;;;;;;;-142.75;65.73;76340.00;4933303;29;19921;-69
2022/07/17 11:48:55;;;;;;;;;;;;;;;-142.75;63.02;76373.44;4933007;29;19915;-69
2022/07/17 11:51:20;;;;;;;;;;;;;;;-142.75;60.53;76353.78;4933391;29;19961;-68
2022/07/17 11:53:47;;;;;;;;;;;;;;;-142.75;61.84;76377.38;4933193;29;19916;-69
2022/07/17 11:56:19;;;;;;;;;;;;;;;-142.75;63.00;76328.19;4933231;29;19962;-69
2022/07/17 11:58:46;;;;;;;;;;;;;;;-142.75;61.96;76284.88;4932833;29;20407;-69
2022/07/17 12:01:11;;;;;;;;;;;;;;;-142.75;60.48;76282.91;4933069;29;20055;-69
2022/07/17 12:03:37;;;;;;;;;;;;;;;-142.75;59.63;76280.94;4933220;29;20431;-70
2022/07/17 12:06:02;;;;;;;;;;;;;;;-142.75;58.17;76393.13;4933226;29;19926;-69
2022/07/17 12:08:27;;;;;;;;;;;;;;;-142.75;62.99;76355.72;4932559;29;19915;-70
2022/07/17 12:10:59;;;;;;;;;;;;;;;-142.75;65.12;76294.72;4933005;29;19915;-69
2022/07/17 12:13:36;;;;;;;;;;;;;;;-142.75;57.95;76282.91;4933073;29;19951;-70